Main page
METAR-TAF:

METAR-TAF

Airports :

Saint-Nazaire, France

latitude: 47-19N, longitude: 002-10W, elevation: 3 m

Current weather observation

The report was made 37 minutes ago, at 23:30 UTC
Wind 4 kt from the Northwest
Temperature 2°C
Humidity 100%
Pressure 1013 hPa
Visibility: 0650 m
patches of fog

METAR: LFRZ 172330Z AUTO 32004KT 2100 0650 R25/0800N BCFG VV/// 02/02 Q1013 TEMPO 0300 FG

Time: 01:07 (00:07 UTC)

Forecast

The report was made 1 hour and 7 minutes ago, at 23:00 UTC
Forecast valid from 18 at 00 UTC to 18 at 24 UTC
Wind 5 kt from the North/Northwest
Visibility: 2000 m
Broken clouds at a height of 4000 ft
mist
Temporary
from 18 at 00 UTC to 18 at 10 UTC
Visibility: 0300 m
fog
Becoming
from 18 at 10 UTC to 18 at 12 UTC
Visibility 10 km or more
Becoming
from 18 at 22 UTC to 18 at 24 UTC
Visibility: 3000 m
mist

TAF: LFRZ 172300Z 1800/1824 34005KT 2000 BR BKN040 TEMPO 1800/1810 0300 FG VV/// BECMG 1810/1812 9999 NSW BECMG 1822/1824 3000 BR

Weather observations and forecasts of more than 4000 airports (METAR and TAF reports).

The available stations are represented by yellow and red dots on the map.

Hover mouse over dot to see the name of the station.

Then click to see weather observations and forecasts.

To change the map : click on the green buttons with a black cross to zoom in, on the green button with a dash to zoom out, or on the green arrows for adjacent maps.


METAR-TAF: